Time;durP1;ratioP1;P1;durP2;ratioP2;P2;SDS_P1;SDS_P2;PMS_P1;PMS_P2;Temp;Humidity;BMP_temperature;BMP_pressure;BME280_temperature;BME280_humidity;BME280_pressure;Samples;Min_cycle;Max_cycle;Signal;HPM_P1;HPM_P2
2022/10/28 00:01:23;;;;;;;8.50;5.43;;;;;;;;;;4928153;29;20182;-56
2022/10/28 00:03:52;;;;;;;8.10;5.43;;;;;;;;;;4929185;29;20535;-56
2022/10/28 00:06:19;;;;;;;5.57;4.80;;;;;;;;;;4928813;29;20273;-55
2022/10/28 00:08:45;;;;;;;6.33;5.03;;;;;;;;;;4911875;29;20569;-55
2022/10/28 00:11:18;;;;;;;7.43;5.23;;;;;;;;;;4921833;29;20667;-56
2022/10/28 00:13:45;;;;;;;8.77;5.33;;;;;;;;;;4927186;29;20166;-55
2022/10/28 00:16:19;;;;;;;6.17;5.43;;;;;;;;;;4904277;29;20617;-55
2022/10/28 00:18:45;;;;;;;7.37;5.30;;;;;;;;;;4928228;29;20185;-55
2022/10/28 00:21:16;;;;;;;11.70;5.10;;;;;;;;;;4929795;28;20279;-55
2022/10/28 00:23:42;;;;;;;11.43;4.97;;;;;;;;;;4932698;29;20305;-55
2022/10/28 00:26:12;;;;;;;7.90;5.20;;;;;;;;;;4926801;29;20524;-55
2022/10/28 00:28:48;;;;;;;5.13;4.50;;;;;;;;;;4931527;29;20204;-55
2022/10/28 00:31:15;;;;;;;7.47;5.67;;;;;;;;;;4929114;29;20268;-55
2022/10/28 00:33:41;;;;;;;8.83;5.80;;;;;;;;;;4926341;29;20678;-55
2022/10/28 00:36:15;;;;;;;10.63;4.73;;;;;;;;;;4927258;29;20195;-55
2022/10/28 00:38:42;;;;;;;8.50;5.10;;;;;;;;;;4921974;29;20186;-55
2022/10/28 00:41:08;;;;;;;6.20;5.47;;;;;;;;;;4931919;29;20663;-56
2022/10/28 00:43:42;;;;;;;8.27;5.03;;;;;;;;;;4930421;29;20207;-59
2022/10/28 00:46:15;;;;;;;6.00;5.10;;;;;;;;;;4929503;29;20208;-55
2022/10/28 00:48:43;;;;;;;6.50;4.97;;;;;;;;;;4903208;29;20188;-56
2022/10/28 00:51:09;;;;;;;10.57;5.73;;;;;;;;;;4923857;29;20632;-56
2022/10/28 00:53:35;;;;;;;7.57;5.13;;;;;;;;;;4925553;29;20181;-56
2022/10/28 00:56:03;;;;;;;9.00;5.00;;;;;;;;;;4925793;29;20182;-56
2022/10/28 00:58:29;;;;;;;8.60;5.40;;;;;;;;;;4928090;29;20297;-56
2022/10/28 01:00:56;;;;;;;5.80;4.53;;;;;;;;;;4925739;29;20606;-56
2022/10/28 01:03:22;;;;;;;6.37;5.70;;;;;;;;;;4926074;29;20177;-56
2022/10/28 01:05:49;;;;;;;13.43;5.83;;;;;;;;;;4926727;29;20618;-56
2022/10/28 01:08:15;;;;;;;8.97;5.50;;;;;;;;;;4923878;29;20281;-56
2022/10/28 01:10:44;;;;;;;7.57;5.30;;;;;;;;;;4930365;29;20288;-53
2022/10/28 01:13:15;;;;;;;8.67;6.17;;;;;;;;;;4926023;29;20806;-56
2022/10/28 01:15:56;;;;;;;6.43;5.07;;;;;;;;;;4924167;29;20183;-56
2022/10/28 01:18:28;;;;;;;7.23;5.17;;;;;;;;;;4927321;29;20188;-56
2022/10/28 01:20:54;;;;;;;9.47;5.33;;;;;;;;;;4926678;28;20627;-56
2022/10/28 01:23:20;;;;;;;6.67;5.20;;;;;;;;;;4919723;29;20193;-56
2022/10/28 01:25:58;;;;;;;6.77;5.00;;;;;;;;;;4926809;29;20182;-56
2022/10/28 01:28:45;;;;;;;5.47;4.97;;;;;;;;;;4904908;29;20281;-55
2022/10/28 01:31:21;;;;;;;8.80;5.03;;;;;;;;;;4928600;29;20185;-56
2022/10/28 01:33:53;;;;;;;9.03;5.70;;;;;;;;;;4914986;29;20181;-55
2022/10/28 01:36:25;;;;;;;6.60;5.13;;;;;;;;;;4912657;29;20208;-56
2022/10/28 01:38:57;;;;;;;6.60;5.20;;;;;;;;;;4929743;29;20184;-55
2022/10/28 01:41:30;;;;;;;7.43;4.70;;;;;;;;;;4924506;29;20228;-56
2022/10/28 01:43:56;;;;;;;7.17;5.63;;;;;;;;;;4929245;29;20652;-56
2022/10/28 01:46:25;;;;;;;7.17;5.00;;;;;;;;;;4921386;29;20775;-56
2022/10/28 01:48:55;;;;;;;13.53;5.07;;;;;;;;;;4924112;29;20182;-55
2022/10/28 01:51:24;;;;;;;7.03;5.33;;;;;;;;;;4905942;29;20218;-55
2022/10/28 01:53:52;;;;;;;6.00;4.83;;;;;;;;;;4920983;29;20189;-55
2022/10/28 01:56:21;;;;;;;6.77;4.47;;;;;;;;;;4926945;29;20204;-56
2022/10/28 01:58:48;;;;;;;7.33;5.33;;;;;;;;;;4926537;29;20185;-56
2022/10/28 02:01:14;;;;;;;8.60;5.33;;;;;;;;;;4922796;29;20264;-56
2022/10/28 02:03:40;;;;;;;7.07;5.10;;;;;;;;;;4928795;29;20212;-56
2022/10/28 02:06:08;;;;;;;5.83;5.17;;;;;;;;;;4925112;29;20265;-56
2022/10/28 02:08:36;;;;;;;7.43;5.80;;;;;;;;;;4920790;29;20178;-55
2022/10/28 02:11:11;;;;;;;9.20;5.53;;;;;;;;;;4910818;29;20245;-56
2022/10/28 02:13:43;;;;;;;7.00;5.10;;;;;;;;;;4920445;29;20217;-54
2022/10/28 02:16:28;;;;;;;6.20;4.70;;;;;;;;;;4923407;29;20187;-53
2022/10/28 02:18:59;;;;;;;7.83;5.07;;;;;;;;;;4929612;29;20614;-53
2022/10/28 02:21:25;;;;;;;7.83;5.70;;;;;;;;;;4928143;28;20236;-53
2022/10/28 02:23:55;;;;;;;8.07;4.60;;;;;;;;;;4909900;29;20186;-54
2022/10/28 02:26:30;;;;;;;7.40;5.10;;;;;;;;;;4922396;29;20200;-54
2022/10/28 02:29:01;;;;;;;8.93;5.30;;;;;;;;;;4928460;29;20198;-53
2022/10/28 02:31:33;;;;;;;6.90;4.30;;;;;;;;;;4922315;29;20210;-54
2022/10/28 02:34:02;;;;;;;7.37;5.03;;;;;;;;;;4921453;29;20195;-54
2022/10/28 02:36:30;;;;;;;6.43;4.87;;;;;;;;;;4928623;29;20231;-55
2022/10/28 02:38:58;;;;;;;9.27;6.18;;;;;;;;;;4897379;29;20520;-54
2022/10/28 02:41:26;;;;;;;12.40;5.43;;;;;;;;;;4924691;29;20180;-54
2022/10/28 02:43:54;;;;;;;9.17;6.00;;;;;;;;;;4928860;29;20485;-53
2022/10/28 02:46:21;;;;;;;9.50;5.27;;;;;;;;;;4922511;29;20216;-54
2022/10/28 02:48:49;;;;;;;6.40;4.93;;;;;;;;;;4925155;29;20585;-53
2022/10/28 02:51:21;;;;;;;5.97;4.70;;;;;;;;;;4923620;29;20749;-53
2022/10/28 02:53:54;;;;;;;6.50;4.80;;;;;;;;;;4925394;29;20657;-53
2022/10/28 02:56:21;;;;;;;9.10;5.23;;;;;;;;;;4916521;29;20174;-53
2022/10/28 02:58:47;;;;;;;10.03;5.47;;;;;;;;;;4926517;29;20188;-53
2022/10/28 03:01:13;;;;;;;12.10;11.10;;;;;;;;;;4927425;29;20221;-54
2022/10/28 03:03:40;;;;;;;7.73;5.23;;;;;;;;;;4921818;29;20175;-53
2022/10/28 03:06:06;;;;;;;8.50;5.20;;;;;;;;;;4925488;29;20178;-53
2022/10/28 03:08:32;;;;;;;6.17;4.63;;;;;;;;;;4904205;29;20237;-53
2022/10/28 03:10:58;;;;;;;7.23;4.60;;;;;;;;;;4921044;29;20193;-53
2022/10/28 03:13:24;;;;;;;11.23;5.43;;;;;;;;;;4925661;29;20684;-53
2022/10/28 03:15:50;;;;;;;8.80;6.17;;;;;;;;;;4917140;29;20209;-53
2022/10/28 03:18:16;;;;;;;11.57;10.43;;;;;;;;;;4920148;29;20270;-55
2022/10/28 03:20:55;;;;;;;8.73;4.80;;;;;;;;;;4925994;28;20670;-55
2022/10/28 03:23:21;;;;;;;12.27;5.63;;;;;;;;;;4921066;29;20228;-55
2022/10/28 03:25:47;;;;;;;6.90;5.40;;;;;;;;;;4927206;29;20225;-55
2022/10/28 03:28:13;;;;;;;10.33;5.03;;;;;;;;;;4922080;29;20181;-54
2022/10/28 03:30:39;;;;;;;6.03;5.07;;;;;;;;;;4923640;29;20716;-55
2022/10/28 03:33:05;;;;;;;7.70;6.87;;;;;;;;;;4928148;29;20204;-55
2022/10/28 03:35:31;;;;;;;8.00;5.03;;;;;;;;;;4928966;29;20315;-55
2022/10/28 03:37:57;;;;;;;5.50;4.60;;;;;;;;;;4927597;29;20637;-55
2022/10/28 03:40:23;;;;;;;8.60;7.80;;;;;;;;;;4925792;29;20200;-55
2022/10/28 03:42:49;;;;;;;7.97;5.07;;;;;;;;;;4927156;29;20220;-54
2022/10/28 03:45:15;;;;;;;7.07;5.70;;;;;;;;;;4921391;29;20581;-55
2022/10/28 03:47:41;;;;;;;7.17;5.17;;;;;;;;;;4919981;29;20185;-55
2022/10/28 03:50:08;;;;;;;9.33;4.73;;;;;;;;;;4922712;29;20621;-55
2022/10/28 03:52:34;;;;;;;7.43;5.73;;;;;;;;;;4923981;29;20280;-55
2022/10/28 03:55:00;;;;;;;5.97;4.47;;;;;;;;;;4927045;29;20201;-55
2022/10/28 03:57:29;;;;;;;6.97;4.80;;;;;;;;;;4924594;29;20622;-55
2022/10/28 03:59:55;;;;;;;6.93;4.97;;;;;;;;;;4921947;29;20248;-55
2022/10/28 04:02:21;;;;;;;10.00;9.10;;;;;;;;;;4906665;29;20631;-55
2022/10/28 04:04:47;;;;;;;10.97;5.53;;;;;;;;;;4923739;29;20209;-55
2022/10/28 04:07:13;;;;;;;9.77;5.73;;;;;;;;;;4923052;29;20225;-55
2022/10/28 04:09:39;;;;;;;9.07;5.03;;;;;;;;;;4924007;29;20182;-55
2022/10/28 04:12:06;;;;;;;8.23;5.83;;;;;;;;;;4922391;29;20200;-55
2022/10/28 04:14:32;;;;;;;8.03;5.73;;;;;;;;;;4928273;29;20641;-55
2022/10/28 04:16:58;;;;;;;9.10;5.83;;;;;;;;;;4921803;29;20257;-55
2022/10/28 04:19:24;;;;;;;6.70;4.60;;;;;;;;;;4918087;29;20260;-55
2022/10/28 04:21:50;;;;;;;9.87;5.47;;;;;;;;;;4908146;28;20225;-55
2022/10/28 04:24:16;;;;;;;8.70;4.90;;;;;;;;;;4929165;29;20192;-55
2022/10/28 04:26:42;;;;;;;7.90;4.50;;;;;;;;;;4911197;29;20186;-55
2022/10/28 04:29:08;;;;;;;8.50;6.47;;;;;;;;;;4931658;29;20185;-55
2022/10/28 04:31:34;;;;;;;11.30;5.00;;;;;;;;;;4921641;29;20709;-55
2022/10/28 04:34:00;;;;;;;6.43;4.37;;;;;;;;;;4923995;29;20205;-55
2022/10/28 04:36:26;;;;;;;8.27;5.30;;;;;;;;;;4917192;29;20244;-55
2022/10/28 04:38:52;;;;;;;8.30;5.67;;;;;;;;;;4925511;29;20182;-55
2022/10/28 04:41:18;;;;;;;6.60;5.07;;;;;;;;;;4923763;29;20597;-54
2022/10/28 04:43:44;;;;;;;9.83;4.50;;;;;;;;;;4923807;29;20590;-55
2022/10/28 04:46:10;;;;;;;10.80;8.83;;;;;;;;;;4921114;29;20205;-55
2022/10/28 04:48:36;;;;;;;7.67;5.23;;;;;;;;;;4927546;29;20629;-55
2022/10/28 04:51:02;;;;;;;10.67;6.70;;;;;;;;;;4924927;29;20522;-55
2022/10/28 04:53:28;;;;;;;7.83;4.87;;;;;;;;;;4928098;29;20431;-55
2022/10/28 04:55:58;;;;;;;7.80;4.90;;;;;;;;;;4908167;29;20215;-55
2022/10/28 04:58:25;;;;;;;7.57;4.47;;;;;;;;;;4925476;29;20214;-55
2022/10/28 05:00:54;;;;;;;7.77;5.47;;;;;;;;;;4923876;29;20204;-55
2022/10/28 05:03:20;;;;;;;7.37;5.27;;;;;;;;;;4924948;29;20194;-55
2022/10/28 05:05:47;;;;;;;8.37;4.77;;;;;;;;;;4923260;29;20182;-55
2022/10/28 05:08:13;;;;;;;5.50;4.77;;;;;;;;;;4921748;29;20177;-55
2022/10/28 05:10:39;;;;;;;6.43;4.73;;;;;;;;;;4921428;29;20181;-55
2022/10/28 05:13:05;;;;;;;6.33;5.47;;;;;;;;;;4924799;29;20204;-55
2022/10/28 05:15:31;;;;;;;9.63;5.43;;;;;;;;;;4927929;29;20181;-55
2022/10/28 05:17:57;;;;;;;9.97;4.97;;;;;;;;;;4927252;29;20181;-55
2022/10/28 05:20:24;;;;;;;7.67;4.90;;;;;;;;;;4927868;28;20232;-55
2022/10/28 05:22:55;;;;;;;6.63;4.90;;;;;;;;;;4923857;29;20192;-55
2022/10/28 05:25:21;;;;;;;7.77;4.10;;;;;;;;;;4903200;29;20189;-54
2022/10/28 05:27:47;;;;;;;10.03;6.10;;;;;;;;;;4924934;29;20185;-55
2022/10/28 05:30:14;;;;;;;9.10;5.43;;;;;;;;;;4903914;29;20193;-56
2022/10/28 05:32:40;;;;;;;9.70;5.13;;;;;;;;;;4920337;29;20555;-56
2022/10/28 05:35:06;;;;;;;12.63;5.67;;;;;;;;;;4927459;29;20228;-56
2022/10/28 05:37:32;;;;;;;8.83;5.67;;;;;;;;;;4926947;29;20753;-56
2022/10/28 05:39:58;;;;;;;8.00;4.40;;;;;;;;;;4929116;29;20633;-55
2022/10/28 05:42:24;;;;;;;9.63;5.50;;;;;;;;;;4928971;29;20176;-56
2022/10/28 05:44:50;;;;;;;6.67;5.17;;;;;;;;;;4917799;29;20589;-56
2022/10/28 05:47:16;;;;;;;8.03;4.50;;;;;;;;;;4905490;29;20695;-56
2022/10/28 05:49:42;;;;;;;5.90;5.27;;;;;;;;;;4923886;29;20178;-56
2022/10/28 05:52:08;;;;;;;9.67;5.07;;;;;;;;;;4915069;29;20526;-56
2022/10/28 05:54:34;;;;;;;7.40;4.90;;;;;;;;;;4931480;29;20176;-56
2022/10/28 05:57:01;;;;;;;8.52;5.03;;;;;;;;;;4926260;29;20912;-56
2022/10/28 05:59:27;;;;;;;11.70;5.50;;;;;;;;;;4903706;29;20183;-56
2022/10/28 06:01:53;;;;;;;8.70;5.57;;;;;;;;;;4909428;29;20174;-56
2022/10/28 06:04:19;;;;;;;9.53;5.40;;;;;;;;;;4928751;29;20548;-56
2022/10/28 06:06:45;;;;;;;6.73;4.80;;;;;;;;;;4930616;29;20184;-57
2022/10/28 06:09:11;;;;;;;11.90;5.77;;;;;;;;;;4931379;29;20263;-56
2022/10/28 06:11:37;;;;;;;9.70;4.70;;;;;;;;;;4926613;29;20198;-56
2022/10/28 06:14:03;;;;;;;8.30;5.67;;;;;;;;;;4926941;29;20181;-56
2022/10/28 06:16:29;;;;;;;7.90;5.40;;;;;;;;;;4924542;29;20285;-56
2022/10/28 06:18:55;;;;;;;8.10;4.87;;;;;;;;;;4922878;29;20195;-56
2022/10/28 06:21:21;;;;;;;11.40;6.07;;;;;;;;;;4899824;28;20278;-56
2022/10/28 06:23:47;;;;;;;7.17;4.80;;;;;;;;;;4923354;29;20162;-56
2022/10/28 06:26:13;;;;;;;7.17;5.43;;;;;;;;;;4922254;29;20176;-56
2022/10/28 06:28:39;;;;;;;8.20;4.87;;;;;;;;;;4924238;29;20219;-55
2022/10/28 06:31:07;;;;;;;11.00;5.90;;;;;;;;;;4922602;29;20170;-56
2022/10/28 06:33:33;;;;;;;6.93;6.07;;;;;;;;;;4923681;29;20625;-56
2022/10/28 06:36:00;;;;;;;8.50;5.63;;;;;;;;;;4928071;29;20221;-56
2022/10/28 06:38:27;;;;;;;6.37;4.80;;;;;;;;;;4913384;29;20177;-55
2022/10/28 06:40:53;;;;;;;6.37;5.10;;;;;;;;;;4926281;29;20661;-56
2022/10/28 06:43:19;;;;;;;10.73;5.10;;;;;;;;;;4927582;29;20671;-55
2022/10/28 06:45:53;;;;;;;8.60;5.20;;;;;;;;;;4929710;29;20215;-55
2022/10/28 06:48:19;;;;;;;6.83;4.90;;;;;;;;;;4929350;29;20168;-55
2022/10/28 06:50:45;;;;;;;12.67;5.10;;;;;;;;;;4930336;29;20637;-56
2022/10/28 06:53:11;;;;;;;10.40;6.10;;;;;;;;;;4930397;29;20661;-56
2022/10/28 06:55:37;;;;;;;11.50;4.80;;;;;;;;;;4902538;29;20575;-56
2022/10/28 06:58:03;;;;;;;8.07;5.27;;;;;;;;;;4921097;29;20244;-55
2022/10/28 07:00:30;;;;;;;8.93;5.10;;;;;;;;;;4926300;29;20185;-56
2022/10/28 07:02:56;;;;;;;8.80;5.63;;;;;;;;;;4919099;29;20203;-55
2022/10/28 07:05:24;;;;;;;8.97;4.43;;;;;;;;;;4922686;29;20592;-56
2022/10/28 07:07:50;;;;;;;8.80;5.47;;;;;;;;;;4930145;29;20248;-55
2022/10/28 07:10:16;;;;;;;7.63;5.20;;;;;;;;;;4928516;29;20256;-55
2022/10/28 07:12:42;;;;;;;6.50;5.43;;;;;;;;;;4926272;29;20956;-55
2022/10/28 07:15:09;;;;;;;8.07;6.03;;;;;;;;;;4918185;29;20170;-56
2022/10/28 07:17:35;;;;;;;8.60;5.37;;;;;;;;;;4921075;29;20166;-55
2022/10/28 07:20:02;;;;;;;10.83;5.13;;;;;;;;;;4927435;29;20257;-55
2022/10/28 07:22:28;;;;;;;6.73;5.17;;;;;;;;;;4927465;29;20217;-57
2022/10/28 07:24:54;;;;;;;9.93;5.20;;;;;;;;;;4929824;29;20184;-56
2022/10/28 07:27:20;;;;;;;7.67;5.57;;;;;;;;;;4917906;29;20202;-61
2022/10/28 07:29:46;;;;;;;8.07;5.87;;;;;;;;;;4928893;29;20184;-56
2022/10/28 07:32:12;;;;;;;7.40;5.00;;;;;;;;;;4923396;29;20201;-56
2022/10/28 07:34:38;;;;;;;8.77;5.30;;;;;;;;;;4925141;29;20177;-56
2022/10/28 07:37:04;;;;;;;8.47;4.63;;;;;;;;;;4930358;29;20578;-56
2022/10/28 07:39:31;;;;;;;6.37;5.17;;;;;;;;;;4923646;29;20174;-56
2022/10/28 07:41:57;;;;;;;8.73;4.63;;;;;;;;;;4930281;29;20181;-56
2022/10/28 07:44:23;;;;;;;8.90;5.47;;;;;;;;;;4929202;29;20667;-56
2022/10/28 07:46:49;;;;;;;6.90;5.20;;;;;;;;;;4928858;29;20233;-56
2022/10/28 07:49:16;;;;;;;5.57;4.20;;;;;;;;;;4929916;29;20177;-56
2022/10/28 07:51:42;;;;;;;7.03;4.97;;;;;;;;;;4928387;29;20212;-55
2022/10/28 07:54:08;;;;;;;7.30;4.97;;;;;;;;;;4923680;29;20169;-56
2022/10/28 07:56:34;;;;;;;6.53;5.20;;;;;;;;;;4924964;29;20185;-56
2022/10/28 07:59:00;;;;;;;10.17;5.13;;;;;;;;;;4933145;29;20272;-55
2022/10/28 08:01:26;;;;;;;9.07;5.70;;;;;;;;;;4907786;29;20177;-56
2022/10/28 08:03:52;;;;;;;9.53;5.40;;;;;;;;;;4930737;29;20241;-56
2022/10/28 08:06:20;;;;;;;8.53;5.27;;;;;;;;;;4928116;29;20181;-56
2022/10/28 08:08:47;;;;;;;8.50;5.07;;;;;;;;;;4931401;29;20173;-56
2022/10/28 08:11:14;;;;;;;10.00;5.17;;;;;;;;;;4925687;29;20244;-56
2022/10/28 08:13:41;;;;;;;9.23;4.70;;;;;;;;;;4917762;29;20253;-55
2022/10/28 08:16:07;;;;;;;12.70;5.73;;;;;;;;;;4932672;29;20169;-56
2022/10/28 08:18:33;;;;;;;8.00;5.07;;;;;;;;;;4929977;29;20200;-56
2022/10/28 08:21:07;;;;;;;9.40;4.97;;;;;;;;;;4908601;28;20222;-56
2022/10/28 08:23:33;;;;;;;8.13;5.63;;;;;;;;;;4934053;29;20326;-56
2022/10/28 08:25:59;;;;;;;8.40;5.10;;;;;;;;;;4930553;29;20177;-56
2022/10/28 08:28:25;;;;;;;8.63;5.67;;;;;;;;;;4924757;29;20165;-56
2022/10/28 08:30:51;;;;;;;6.60;4.27;;;;;;;;;;4930886;29;20186;-56
2022/10/28 08:33:18;;;;;;;9.70;5.23;;;;;;;;;;4933597;29;20724;-56
2022/10/28 08:35:49;;;;;;;6.00;4.77;;;;;;;;;;4932662;29;20688;-55
2022/10/28 08:38:15;;;;;;;7.13;4.87;;;;;;;;;;4926558;29;20316;-56
2022/10/28 08:40:53;;;;;;;8.07;5.10;;;;;;;;;;4932539;29;20189;-56
2022/10/28 08:43:37;;;;;;;9.20;5.20;;;;;;;;;;4927143;29;20177;-56
2022/10/28 08:46:08;;;;;;;6.90;5.27;;;;;;;;;;4931319;29;20300;-56
2022/10/28 08:48:35;;;;;;;6.57;4.90;;;;;;;;;;4925691;29;20177;-56
2022/10/28 08:51:22;;;;;;;8.90;4.90;;;;;;;;;;4932471;29;20654;-56
2022/10/28 08:53:59;;;;;;;10.90;5.07;;;;;;;;;;4931799;29;20192;-56
2022/10/28 08:56:32;;;;;;;7.87;4.97;;;;;;;;;;4920204;29;20177;-56
2022/10/28 08:59:00;;;;;;;8.93;5.23;;;;;;;;;;4925820;29;20613;-56
2022/10/28 09:01:32;;;;;;;11.13;5.17;;;;;;;;;;4914870;29;20178;-56
2022/10/28 09:03:59;;;;;;;6.57;4.97;;;;;;;;;;4932675;29;20174;-56
2022/10/28 09:06:25;;;;;;;10.13;5.83;;;;;;;;;;4932401;29;20179;-56
2022/10/28 09:08:53;;;;;;;8.57;6.17;;;;;;;;;;4925207;29;20183;-56
2022/10/28 09:11:42;;;;;;;16.00;5.30;;;;;;;;;;4922894;29;20636;-57
2022/10/28 09:14:08;;;;;;;13.03;5.50;;;;;;;;;;4904711;29;20554;-57
2022/10/28 09:16:51;;;;;;;8.93;4.67;;;;;;;;;;4914478;29;20210;-57
2022/10/28 09:19:26;;;;;;;7.27;4.80;;;;;;;;;;4932570;29;20623;-57
2022/10/28 09:22:12;;;;;;;6.43;4.70;;;;;;;;;;4926395;28;20223;-57
2022/10/28 09:24:45;;;;;;;8.00;5.00;;;;;;;;;;4878419;29;20200;-57
2022/10/28 09:27:19;;;;;;;10.87;5.27;;;;;;;;;;4921779;29;20180;-57
2022/10/28 09:30:04;;;;;;;8.37;4.67;;;;;;;;;;4926358;29;20630;-57
2022/10/28 09:32:33;;;;;;;7.57;5.33;;;;;;;;;;4914466;29;20220;-54
2022/10/28 09:35:05;;;;;;;9.60;5.20;;;;;;;;;;4924667;29;20208;-55
2022/10/28 09:37:34;;;;;;;11.90;5.47;;;;;;;;;;4932149;29;20634;-55
2022/10/28 09:40:21;;;;;;;8.27;4.73;;;;;;;;;;4929237;29;20171;-55
2022/10/28 09:42:51;;;;;;;7.73;5.60;;;;;;;;;;4920541;29;20177;-55
2022/10/28 09:45:20;;;;;;;12.43;5.20;;;;;;;;;;4926497;29;20221;-55
2022/10/28 09:47:51;;;;;;;14.87;5.80;;;;;;;;;;4924377;29;20667;-55
2022/10/28 09:50:20;;;;;;;7.93;5.10;;;;;;;;;;4924636;29;20277;-54
2022/10/28 09:53:04;;;;;;;10.10;4.97;;;;;;;;;;4923765;29;20251;-54
2022/10/28 09:55:31;;;;;;;16.73;5.30;;;;;;;;;;4924595;29;20250;-55
2022/10/28 09:57:58;;;;;;;9.13;5.50;;;;;;;;;;4928804;29;20169;-55
2022/10/28 10:00:24;;;;;;;10.23;4.80;;;;;;;;;;4925619;29;20174;-55
2022/10/28 10:02:56;;;;;;;7.43;5.20;;;;;;;;;;4931325;29;20745;-55
2022/10/28 10:05:23;;;;;;;8.20;5.20;;;;;;;;;;4931727;29;20652;-54
2022/10/28 10:08:00;;;;;;;8.83;4.87;;;;;;;;;;4931416;29;20215;-54
2022/10/28 10:10:28;;;;;;;6.73;5.17;;;;;;;;;;4922188;29;20178;-55
2022/10/28 10:12:56;;;;;;;12.17;5.63;;;;;;;;;;4904097;29;20569;-54
2022/10/28 10:15:26;;;;;;;8.57;4.63;;;;;;;;;;4930669;29;20594;-55
2022/10/28 10:17:52;;;;;;;8.30;5.17;;;;;;;;;;4923711;29;20249;-55
2022/10/28 10:20:19;;;;;;;8.43;5.00;;;;;;;;;;4924881;29;20267;-54
2022/10/28 10:22:47;;;;;;;6.17;5.10;;;;;;;;;;4909705;28;20587;-54
2022/10/28 10:25:19;;;;;;;10.93;5.87;;;;;;;;;;4922003;29;20189;-54
2022/10/28 10:27:51;;;;;;;10.47;5.90;;;;;;;;;;4930432;29;20652;-55
2022/10/28 10:30:20;;;;;;;11.20;5.33;;;;;;;;;;4930262;29;20169;-55
2022/10/28 10:32:47;;;;;;;9.57;5.60;;;;;;;;;;4931353;29;20193;-55
2022/10/28 10:35:13;;;;;;;8.07;5.30;;;;;;;;;;4930860;29;20177;-55
2022/10/28 10:37:45;;;;;;;11.07;4.83;;;;;;;;;;4923568;29;20176;-54
2022/10/28 10:40:11;;;;;;;11.80;6.00;;;;;;;;;;4913245;29;20178;-55
2022/10/28 10:42:37;;;;;;;7.80;4.90;;;;;;;;;;4931491;29;20598;-56
2022/10/28 10:45:24;;;;;;;6.00;4.93;;;;;;;;;;4906268;29;20523;-56
2022/10/28 10:48:05;;;;;;;7.80;5.30;;;;;;;;;;4913589;29;20667;-56
2022/10/28 10:50:31;;;;;;;6.70;5.23;;;;;;;;;;4923065;29;20656;-56
2022/10/28 10:52:59;;;;;;;8.63;5.40;;;;;;;;;;4930783;29;20645;-56
2022/10/28 10:55:30;;;;;;;8.30;4.67;;;;;;;;;;4916101;29;20212;-56
2022/10/28 10:57:56;;;;;;;7.83;5.47;;;;;;;;;;4923391;29;20177;-56
2022/10/28 11:00:24;;;;;;;10.97;5.67;;;;;;;;;;4925174;29;20681;-56
2022/10/28 11:02:51;;;;;;;9.27;5.30;;;;;;;;;;4918897;29;20184;-56
2022/10/28 11:05:23;;;;;;;11.53;6.07;;;;;;;;;;4926761;29;20539;-56
2022/10/28 11:07:50;;;;;;;9.33;6.13;;;;;;;;;;4923588;29;20180;-56
2022/10/28 11:10:26;;;;;;;8.13;5.50;;;;;;;;;;4926315;29;20181;-56
2022/10/28 11:12:57;;;;;;;10.47;5.77;;;;;;;;;;4922684;29;20234;-56
2022/10/28 11:15:28;;;;;;;7.53;5.20;;;;;;;;;;4929541;29;21083;-56
2022/10/28 11:18:02;;;;;;;11.20;5.87;;;;;;;;;;4921115;29;20244;-56
2022/10/28 11:20:42;;;;;;;9.33;5.23;;;;;;;;;;4910189;29;20177;-56
2022/10/28 11:23:35;;;;;;;10.57;4.87;;;;;;;;;;4924186;29;20221;-56
2022/10/28 11:26:03;;;;;;;8.20;5.47;;;;;;;;;;4921923;29;20345;-56
2022/10/28 11:28:32;;;;;;;12.80;5.67;;;;;;;;;;4931032;29;20169;-56
2022/10/28 11:31:07;;;;;;;10.03;5.37;;;;;;;;;;4912473;29;20166;-56
2022/10/28 11:33:42;;;;;;;12.33;6.10;;;;;;;;;;4923251;29;20216;-56
2022/10/28 11:36:08;;;;;;;9.63;5.10;;;;;;;;;;4919349;29;20185;-56
2022/10/28 11:38:37;;;;;;;7.60;5.47;;;;;;;;;;4933616;29;20185;-56
2022/10/28 11:41:17;;;;;;;11.47;5.37;;;;;;;;;;4926327;29;20602;-55
2022/10/28 11:43:53;;;;;;;7.50;5.20;;;;;;;;;;4928958;29;20245;-55
2022/10/28 11:46:39;;;;;;;7.77;5.30;;;;;;;;;;4932767;29;20216;-56
2022/10/28 11:49:38;;;;;;;8.43;5.20;;;;;;;;;;4932467;29;20213;-56
2022/10/28 11:52:15;;;;;;;13.97;5.37;;;;;;;;;;4873330;29;20254;-56
2022/10/28 11:55:00;;;;;;;12.53;6.17;;;;;;;;;;4930394;29;20717;-56
2022/10/28 11:57:44;;;;;;;9.37;7.43;;;;;;;;;;4926385;29;20174;-56
2022/10/28 12:00:13;;;;;;;8.40;5.63;;;;;;;;;;4924545;29;20263;-56
2022/10/28 12:02:47;;;;;;;8.63;5.47;;;;;;;;;;4921949;29;20178;-56
2022/10/28 12:05:13;;;;;;;8.10;4.90;;;;;;;;;;4925070;29;20192;-57
2022/10/28 12:07:45;;;;;;;10.03;5.57;;;;;;;;;;4924959;29;20191;-56
2022/10/28 12:10:19;;;;;;;11.23;5.70;;;;;;;;;;4910970;29;20193;-56
2022/10/28 12:12:51;;;;;;;21.20;5.87;;;;;;;;;;4923657;29;20656;-56
2022/10/28 12:15:20;;;;;;;8.83;6.53;;;;;;;;;;4920081;29;20637;-56
2022/10/28 12:17:46;;;;;;;9.50;5.73;;;;;;;;;;4927971;29;20193;-56
2022/10/28 12:20:31;;;;;;;10.57;9.43;;;;;;;;;;4921511;29;20234;-56
2022/10/28 12:22:59;;;;;;;11.03;5.57;;;;;;;;;;4933392;28;20728;-56
2022/10/28 12:25:27;;;;;;;9.13;6.13;;;;;;;;;;4928628;29;20193;-56
2022/10/28 12:27:57;;;;;;;8.47;5.30;;;;;;;;;;4916276;29;20536;-56
2022/10/28 12:30:34;;;;;;;11.77;5.27;;;;;;;;;;4918237;29;20628;-56
2022/10/28 12:33:04;;;;;;;9.40;5.97;;;;;;;;;;4924014;29;20197;-56
2022/10/28 12:35:32;;;;;;;12.80;5.80;;;;;;;;;;4929174;29;20604;-56
2022/10/28 12:38:08;;;;;;;11.53;5.77;;;;;;;;;;4930530;29;20181;-56
2022/10/28 12:40:41;;;;;;;7.50;5.97;;;;;;;;;;4923299;29;20276;-56
2022/10/28 12:43:20;;;;;;;8.80;5.57;;;;;;;;;;4924249;29;20772;-56
2022/10/28 12:45:48;;;;;;;10.93;5.90;;;;;;;;;;4903877;29;20247;-56
2022/10/28 12:48:19;;;;;;;9.80;5.90;;;;;;;;;;4924139;29;20244;-56
2022/10/28 12:50:51;;;;;;;10.90;7.13;;;;;;;;;;4921101;29;20570;-56
2022/10/28 12:53:38;;;;;;;6.70;5.37;;;;;;;;;;4929864;29;20633;-55
2022/10/28 12:56:08;;;;;;;8.33;5.67;;;;;;;;;;4916536;29;20193;-56
2022/10/28 12:58:52;;;;;;;8.40;5.87;;;;;;;;;;4924577;29;20217;-56
2022/10/28 13:01:20;;;;;;;10.47;5.17;;;;;;;;;;4920003;29;20597;-56
2022/10/28 13:03:48;;;;;;;11.10;4.80;;;;;;;;;;4930995;29;20192;-55
2022/10/28 13:06:14;;;;;;;8.63;5.53;;;;;;;;;;4920775;29;20235;-55
2022/10/28 13:08:47;;;;;;;6.00;5.40;;;;;;;;;;4928684;29;20239;-55
2022/10/28 13:11:19;;;;;;;12.70;5.90;;;;;;;;;;4923793;29;20197;-55
2022/10/28 13:14:04;;;;;;;8.50;5.07;;;;;;;;;;4930895;29;20656;-55
2022/10/28 13:16:39;;;;;;;8.33;4.97;;;;;;;;;;4923792;29;20181;-55
2022/10/28 13:19:16;;;;;;;10.47;6.10;;;;;;;;;;4927512;29;20635;-55
2022/10/28 13:22:04;;;;;;;7.97;5.33;;;;;;;;;;4921599;28;20335;-55
2022/10/28 13:24:37;;;;;;;8.50;5.77;;;;;;;;;;4924497;29;20184;-55
2022/10/28 13:27:04;;;;;;;7.70;5.30;;;;;;;;;;4920435;29;20185;-55
2022/10/28 13:29:32;;;;;;;9.47;6.30;;;;;;;;;;4920657;29;20317;-55
2022/10/28 13:31:58;;;;;;;8.60;5.47;;;;;;;;;;4906207;29;20213;-55
2022/10/28 13:34:35;;;;;;;7.70;5.50;;;;;;;;;;4920736;29;20193;-55
2022/10/28 13:37:17;;;;;;;6.50;5.10;;;;;;;;;;4924668;29;20184;-55
2022/10/28 13:39:44;;;;;;;10.77;5.57;;;;;;;;;;4920053;29;20195;-55
2022/10/28 13:42:13;;;;;;;9.43;5.73;;;;;;;;;;4927851;29;20200;-55
2022/10/28 13:44:48;;;;;;;8.27;5.60;;;;;;;;;;4929121;29;20235;-55
2022/10/28 13:47:14;;;;;;;9.73;5.40;;;;;;;;;;4898616;29;20644;-55
2022/10/28 13:50:00;;;;;;;8.10;6.30;;;;;;;;;;4923307;29;20196;-58
2022/10/28 13:52:26;;;;;;;6.30;4.97;;;;;;;;;;4924912;29;20215;-58
2022/10/28 13:54:54;;;;;;;9.27;5.50;;;;;;;;;;4927015;29;20253;-57
2022/10/28 13:57:28;;;;;;;11.80;7.60;;;;;;;;;;4922807;29;20197;-56
2022/10/28 13:59:58;;;;;;;12.57;10.03;;;;;;;;;;4920718;29;20268;-56
2022/10/28 14:02:29;;;;;;;12.67;6.80;;;;;;;;;;4926597;29;20641;-56
2022/10/28 14:04:57;;;;;;;10.33;4.80;;;;;;;;;;4920876;29;20202;-56
2022/10/28 14:07:26;;;;;;;12.97;5.87;;;;;;;;;;4923439;29;20209;-55
2022/10/28 14:09:54;;;;;;;8.63;5.07;;;;;;;;;;4920594;29;20183;-56
2022/10/28 14:12:26;;;;;;;12.33;5.73;;;;;;;;;;4929144;29;20209;-56
2022/10/28 14:14:55;;;;;;;13.27;5.90;;;;;;;;;;4928681;29;20232;-56
2022/10/28 14:17:22;;;;;;;10.13;5.80;;;;;;;;;;4926983;29;20261;-55
2022/10/28 14:19:52;;;;;;;13.13;6.53;;;;;;;;;;4928621;29;20691;-56
2022/10/28 14:22:35;;;;;;;14.73;10.03;;;;;;;;;;4922708;28;20313;-57
2022/10/28 14:25:02;;;;;;;11.40;6.00;;;;;;;;;;4905984;29;20562;-54
2022/10/28 14:27:42;;;;;;;12.73;6.37;;;;;;;;;;4922940;29;20205;-55
2022/10/28 14:30:12;;;;;;;9.17;5.50;;;;;;;;;;4924521;29;20173;-55
2022/10/28 14:32:42;;;;;;;9.43;5.50;;;;;;;;;;4921401;29;20222;-54
2022/10/28 14:35:11;;;;;;;10.60;5.63;;;;;;;;;;4927644;29;20199;-55
2022/10/28 14:37:40;;;;;;;10.50;5.30;;;;;;;;;;4924890;29;20179;-54
2022/10/28 14:40:25;;;;;;;9.83;5.77;;;;;;;;;;4927313;29;20708;-54
2022/10/28 14:43:06;;;;;;;8.50;5.17;;;;;;;;;;4923296;29;20201;-54
2022/10/28 14:45:53;;;;;;;9.73;5.70;;;;;;;;;;4921912;29;20294;-54
2022/10/28 14:48:38;;;;;;;11.27;5.73;;;;;;;;;;4923787;29;20782;-55
2022/10/28 14:51:08;;;;;;;5.97;4.87;;;;;;;;;;4919598;29;20589;-54
2022/10/28 14:53:35;;;;;;;9.03;6.00;;;;;;;;;;4923358;29;20242;-55
2022/10/28 14:56:03;;;;;;;8.50;5.57;;;;;;;;;;4920506;29;20806;-55